Ourolandia, Brazil
Current Conditions -  °F | °C
As of 11:00 PM on Saturday 25 Oct 2014 (Local Time) from SBPL Reporting Station
Clear Clear  
Wind Chill: 86°   Ceiling: Unl
Heat Index: 86°   Visibility: 6mi
Dew Point: 61°   Wind: 9mph
Humidity: 43%   Direction: 140°SE
Pressure: 29.91"   Gusts: NA
Location:  10.97°S, 41.08°W
Report Text: SBPL 260200Z 14008KT CAVOK 30/16 Q1013
Loading
Personal Weather Stations






























Interactive Weather Map
Tropical Storm Tracking
New forecast layout! Learn more

10-Day Weather Forecast

Advertisements
Track Severe Weather on mobile